createdAt,value
2023-05-01T00:00:54.530Z,1018.16
2023-05-01T00:01:54.474Z,1018.20
2023-05-01T00:02:54.671Z,1018.18
2023-05-01T00:03:54.765Z,1018.12
2023-05-01T00:04:54.514Z,1018.16
2023-05-01T00:05:54.335Z,1018.15
2023-05-01T00:06:54.341Z,1018.15
2023-05-01T00:07:54.261Z,1018.17
2023-05-01T00:08:54.224Z,1018.17
2023-05-01T00:09:54.394Z,1018.17
2023-05-01T00:10:54.233Z,1018.14
2023-05-01T00:11:54.109Z,1018.17
2023-05-01T00:12:54.073Z,1018.13
2023-05-01T00:13:54.035Z,1018.11
2023-05-01T00:14:54.000Z,1018.11
2023-05-01T00:15:54.000Z,1018.10
2023-05-01T00:16:54.058Z,1018.08
2023-05-01T00:17:53.923Z,1018.12
2023-05-01T00:18:53.858Z,1018.11
2023-05-01T00:19:53.962Z,1018.07
2023-05-01T00:20:53.773Z,1018.08
2023-05-01T00:21:53.823Z,1018.07
2023-05-01T00:22:53.857Z,1018.06
2023-05-01T00:23:53.669Z,1018.05
2023-05-01T00:24:53.633Z,1018.06
2023-05-01T00:25:53.650Z,1018.07
2023-05-01T00:26:53.560Z,1018.07
2023-05-01T00:27:53.582Z,1018.04
2023-05-01T00:28:53.493Z,1018.04
2023-05-01T00:29:53.562Z,1018.06
2023-05-01T00:30:53.408Z,1018.03
2023-05-01T00:31:53.410Z,1018.04
2023-05-01T00:32:53.429Z,1018.00
2023-05-01T00:33:53.347Z,1018.04
2023-05-01T00:34:53.274Z,1018.03
2023-05-01T00:35:53.238Z,1017.99
2023-05-01T00:36:53.188Z,1017.97
2023-05-01T00:37:53.161Z,1017.98
2023-05-01T00:38:53.181Z,1018.01
2023-05-01T00:39:53.176Z,1017.99
2023-05-01T00:40:53.047Z,1018.01
2023-05-01T00:41:53.010Z,1018.01
2023-05-01T00:42:52.974Z,1017.99
2023-05-01T00:43:52.938Z,1017.97
2023-05-01T00:44:52.946Z,1017.93
2023-05-01T00:45:52.918Z,1017.96
2023-05-01T00:46:52.818Z,1017.95
2023-05-01T00:47:52.863Z,1017.95
2023-05-01T00:48:52.746Z,1017.91
2023-05-01T00:49:52.779Z,1017.97
2023-05-01T00:50:52.735Z,1017.95
2023-05-01T00:51:52.632Z,1017.90
2023-05-01T00:52:52.608Z,1017.86
2023-05-01T00:53:52.571Z,1017.86
2023-05-01T00:54:52.543Z,1017.88
2023-05-01T00:55:52.518Z,1017.86
2023-05-01T00:56:52.597Z,1017.90
2023-05-01T00:57:52.425Z,1017.86
2023-05-01T00:58:52.401Z,1017.86
2023-05-01T00:59:52.341Z,1017.88
2023-05-01T01:00:52.398Z,1017.88
2023-05-01T01:01:54.926Z,1017.88
2023-05-01T01:02:52.365Z,1017.86
2023-05-01T01:03:52.438Z,1017.85
2023-05-01T01:04:52.193Z,1017.81
2023-05-01T01:05:52.172Z,1017.79
2023-05-01T01:06:52.084Z,1017.80
2023-05-01T01:07:52.050Z,1017.78
2023-05-01T01:08:52.068Z,1017.79
2023-05-01T01:09:51.968Z,1017.80
2023-05-01T01:10:51.986Z,1017.78
2023-05-01T01:11:51.932Z,1017.76
2023-05-01T01:12:51.860Z,1017.79
2023-05-01T01:13:51.832Z,1017.80
2023-05-01T01:14:51.856Z,1017.76
2023-05-01T01:15:51.768Z,1017.74
2023-05-01T01:16:51.750Z,1017.78
2023-05-01T01:17:51.741Z,1017.76
2023-05-01T01:18:51.646Z,1017.71
2023-05-01T01:19:51.605Z,1017.74
2023-05-01T01:20:51.639Z,1017.73
2023-05-01T01:21:51.577Z,1017.71
2023-05-01T01:22:51.575Z,1017.69
2023-05-01T01:23:51.458Z,1017.70
2023-05-01T01:24:51.422Z,1017.72
2023-05-01T01:25:51.389Z,1017.69
2023-05-01T01:26:51.400Z,1017.70
2023-05-01T01:27:51.313Z,1017.66
2023-05-01T01:28:51.270Z,1017.66
2023-05-01T01:29:51.239Z,1017.66
2023-05-01T01:30:51.245Z,1017.70
2023-05-01T01:31:51.235Z,1017.72
2023-05-01T01:32:51.195Z,1017.69
2023-05-01T01:33:51.112Z,1017.68
2023-05-01T01:34:51.120Z,1017.72
2023-05-01T01:35:51.014Z,1017.70
2023-05-01T01:36:51.037Z,1017.66
2023-05-01T01:37:50.936Z,1017.66
2023-05-01T01:38:50.919Z,1017.66
2023-05-01T01:39:50.869Z,1017.64
2023-05-01T01:40:50.828Z,1017.62
2023-05-01T01:41:50.862Z,1017.63
2023-05-01T01:42:50.756Z,1017.60
2023-05-01T01:43:50.741Z,1017.59
2023-05-01T01:44:50.699Z,1017.64
2023-05-01T01:45:50.712Z,1017.60
2023-05-01T01:46:50.612Z,1017.61
2023-05-01T01:47:50.671Z,1017.60
2023-05-01T01:48:50.531Z,1017.59
2023-05-01T01:49:50.526Z,1017.60
2023-05-01T01:50:50.466Z,1017.56
2023-05-01T01:51:50.427Z,1017.57
2023-05-01T01:52:50.393Z,1017.56
2023-05-01T01:53:50.420Z,1017.56
2023-05-01T01:54:50.330Z,1017.50
2023-05-01T01:55:50.273Z,1017.54
2023-05-01T01:56:50.238Z,1017.55
2023-05-01T01:57:50.203Z,1017.55
2023-05-01T01:58:50.170Z,1017.55
2023-05-01T01:59:50.203Z,1017.54
2023-05-01T02:00:50.086Z,1017.55
2023-05-01T02:01:50.119Z,1017.52
2023-05-01T02:02:50.129Z,1017.52
2023-05-01T02:03:50.087Z,1017.52
2023-05-01T02:04:49.948Z,1017.49
2023-05-01T02:05:49.977Z,1017.44
2023-05-01T02:06:50.017Z,1017.43
2023-05-01T02:07:49.852Z,1017.41
2023-05-01T02:08:49.801Z,1017.39
2023-05-01T02:09:49.769Z,1017.43
2023-05-01T02:10:49.721Z,1017.42
2023-05-01T02:11:49.747Z,1017.41
2023-05-01T02:12:49.656Z,1017.43
2023-05-01T02:13:49.620Z,1017.33
2023-05-01T02:14:49.587Z,1017.36
2023-05-01T02:15:49.559Z,1017.35
2023-05-01T02:16:49.559Z,1017.32
2023-05-01T02:17:49.550Z,1017.26
2023-05-01T02:18:49.513Z,1017.31
2023-05-01T02:19:49.400Z,1017.26
2023-05-01T02:20:49.374Z,1017.28
2023-05-01T02:21:49.322Z,1017.25
2023-05-01T02:22:49.325Z,1017.23
2023-05-01T02:23:49.254Z,1017.23
2023-05-01T02:24:49.397Z,1017.18
2023-05-01T02:25:49.178Z,1017.18
2023-05-01T02:26:49.139Z,1017.17
2023-05-01T02:27:49.121Z,1017.14
2023-05-01T02:28:49.065Z,1017.11
2023-05-01T02:29:49.108Z,1017.08
2023-05-01T02:30:48.994Z,1017.07
2023-05-01T02:31:48.991Z,1017.05
2023-05-01T02:32:48.942Z,1017.01
2023-05-01T02:33:48.895Z,1017.03
2023-05-01T02:34:48.885Z,1017.08
2023-05-01T02:35:48.867Z,1017.05
2023-05-01T02:36:48.777Z,1017.00
2023-05-01T02:37:48.742Z,1017.00
2023-05-01T02:38:48.707Z,1016.97
2023-05-01T02:39:48.662Z,1017.00
2023-05-01T02:40:48.689Z,1016.98
2023-05-01T02:41:48.596Z,1016.93
2023-05-01T02:42:48.556Z,1016.97
2023-05-01T02:43:48.522Z,1016.91
2023-05-01T02:44:48.479Z,1016.90
2023-05-01T02:45:48.539Z,1016.92
2023-05-01T02:46:48.474Z,1016.86
2023-05-01T02:47:48.507Z,1016.87
2023-05-01T02:48:48.338Z,1016.92
2023-05-01T02:49:48.300Z,1016.91
2023-05-01T02:50:48.307Z,1016.88
2023-05-01T02:51:48.222Z,1016.90
2023-05-01T02:52:48.181Z,1016.88
2023-05-01T02:53:48.155Z,1016.86
2023-05-01T02:54:48.117Z,1016.87
2023-05-01T02:55:48.139Z,1016.85
2023-05-01T02:56:48.114Z,1016.83
2023-05-01T02:57:47.995Z,1016.82
2023-05-01T02:58:47.962Z,1016.80
2023-05-01T02:59:47.982Z,1016.79
2023-05-01T03:00:47.913Z,1016.80
2023-05-01T03:01:47.939Z,1016.78
2023-05-01T03:02:47.909Z,1016.77
2023-05-01T03:03:47.827Z,1016.78
2023-05-01T03:04:47.797Z,1016.72
2023-05-01T03:05:47.824Z,1016.71
2023-05-01T03:06:47.861Z,1016.70
2023-05-01T03:07:47.701Z,1016.73
2023-05-01T03:08:47.592Z,1016.67
2023-05-01T03:09:47.589Z,1016.63
2023-05-01T03:10:47.529Z,1016.64
2023-05-01T03:11:47.495Z,1016.67
2023-05-01T03:12:47.579Z,1016.65
2023-05-01T03:13:47.416Z,1016.66
2023-05-01T03:14:47.375Z,1016.66
2023-05-01T03:15:47.343Z,1016.66
2023-05-01T03:16:47.336Z,1016.64
2023-05-01T03:17:47.280Z,1016.66
2023-05-01T03:18:47.289Z,1016.67
2023-05-01T03:19:47.197Z,1016.67
2023-05-01T03:20:47.162Z,1016.70
2023-05-01T03:21:47.115Z,1016.67
2023-05-01T03:22:47.106Z,1016.65
2023-05-01T03:23:47.112Z,1016.66
2023-05-01T03:24:47.015Z,1016.64
2023-05-01T03:25:46.989Z,1016.64
2023-05-01T03:26:46.938Z,1016.64
2023-05-01T03:27:46.890Z,1016.63
2023-05-01T03:28:46.929Z,1016.57
2023-05-01T03:29:46.899Z,1016.62
2023-05-01T03:30:46.800Z,1016.59
2023-05-01T03:31:46.792Z,1016.61
2023-05-01T03:32:46.779Z,1016.60
2023-05-01T03:33:46.675Z,1016.60
2023-05-01T03:34:46.636Z,1016.61
2023-05-01T03:35:46.741Z,1016.59
2023-05-01T03:36:46.565Z,1016.59
2023-05-01T03:37:46.544Z,1016.60
2023-05-01T03:38:46.495Z,1016.59
2023-05-01T03:39:46.459Z,1016.60
2023-05-01T03:40:46.418Z,1016.56
2023-05-01T03:41:46.446Z,1016.54
2023-05-01T03:42:46.349Z,1016.59
2023-05-01T03:43:46.312Z,1016.55
2023-05-01T03:44:46.266Z,1016.56
2023-05-01T03:45:46.340Z,1016.54
2023-05-01T03:46:46.237Z,1016.59
2023-05-01T03:47:46.330Z,1016.59
2023-05-01T03:48:46.145Z,1016.60
2023-05-01T03:49:46.088Z,1016.56
2023-05-01T03:50:46.050Z,1016.59
2023-05-01T03:51:46.016Z,1016.58
2023-05-01T03:52:46.029Z,1016.57
2023-05-01T03:53:45.946Z,1016.50
2023-05-01T03:54:45.897Z,1016.50
2023-05-01T03:55:45.859Z,1016.51
2023-05-01T03:56:45.826Z,1016.47
2023-05-01T03:57:45.800Z,1016.48
2023-05-01T03:58:45.847Z,1016.52
2023-05-01T03:59:45.727Z,1016.50
2023-05-01T04:00:45.709Z,1016.53
2023-05-01T04:01:45.714Z,1016.50
2023-05-01T04:02:45.858Z,1016.48
2023-05-01T04:03:45.611Z,1016.45
2023-05-01T04:04:45.594Z,1016.46
2023-05-01T04:05:45.508Z,1016.49
2023-05-01T04:06:45.518Z,1016.44
2023-05-01T04:07:45.469Z,1016.43
2023-05-01T04:08:45.386Z,1016.43
2023-05-01T04:09:45.356Z,1016.43
2023-05-01T04:10:45.375Z,1016.45
2023-05-01T04:11:45.280Z,1016.41
2023-05-01T04:12:45.238Z,1016.45
2023-05-01T04:13:45.199Z,1016.46
2023-05-01T04:14:45.180Z,1016.43
2023-05-01T04:15:45.148Z,1016.42
2023-05-01T04:16:45.150Z,1016.39
2023-05-01T04:17:45.090Z,1016.42
2023-05-01T04:18:45.032Z,1016.40
2023-05-01T04:19:45.000Z,1016.43
2023-05-01T04:20:44.959Z,1016.38
2023-05-01T04:21:44.984Z,1016.42
2023-05-01T04:22:44.972Z,1016.40
2023-05-01T04:23:44.856Z,1016.39
2023-05-01T04:24:44.809Z,1016.41
2023-05-01T04:25:44.779Z,1016.40
2023-05-01T04:26:44.754Z,1016.45
2023-05-01T04:27:44.714Z,1016.41
2023-05-01T04:28:44.745Z,1016.40
2023-05-01T04:29:44.657Z,1016.40
2023-05-01T04:30:44.612Z,1016.43
2023-05-01T04:31:44.591Z,1016.39
2023-05-01T04:32:44.590Z,1016.41
2023-05-01T04:33:44.499Z,1016.40
2023-05-01T04:34:44.522Z,1016.36
2023-05-01T04:35:44.419Z,1016.37
2023-05-01T04:36:44.402Z,1016.38
2023-05-01T04:37:44.357Z,1016.35
2023-05-01T04:38:44.314Z,1016.40
2023-05-01T04:39:44.298Z,1016.41
2023-05-01T04:40:44.306Z,1016.43
2023-05-01T04:41:44.220Z,1016.42
2023-05-01T04:42:44.177Z,1016.39
2023-05-01T04:43:44.148Z,1016.35
2023-05-01T04:44:44.102Z,1016.36
2023-05-01T04:45:44.084Z,1016.32
2023-05-01T04:46:44.142Z,1016.33
2023-05-01T04:47:44.069Z,1016.34
2023-05-01T04:48:43.969Z,1016.34
2023-05-01T04:49:43.942Z,1016.31
2023-05-01T04:50:43.920Z,1016.31
2023-05-01T04:51:43.952Z,1016.34
2023-05-01T04:52:43.836Z,1016.28
2023-05-01T04:53:43.805Z,1016.31
2023-05-01T04:54:43.757Z,1016.28
2023-05-01T04:55:43.733Z,1016.25
2023-05-01T04:56:43.715Z,1016.24
2023-05-01T04:57:43.714Z,1016.25
2023-05-01T04:58:43.620Z,1016.26
2023-05-01T04:59:43.601Z,1016.26
2023-05-01T05:00:43.550Z,1016.23
2023-05-01T05:01:43.589Z,1016.25
2023-05-01T05:02:43.670Z,1016.22
2023-05-01T05:03:43.541Z,1016.24
2023-05-01T05:04:43.411Z,1016.21
2023-05-01T05:05:43.376Z,1016.22
2023-05-01T05:06:43.381Z,1016.22
2023-05-01T05:07:43.324Z,1016.16
2023-05-01T05:08:43.354Z,1016.22
2023-05-01T05:09:43.251Z,1016.20
2023-05-01T05:10:43.207Z,1016.15
2023-05-01T05:11:43.178Z,1016.12
2023-05-01T05:12:43.143Z,1016.15
2023-05-01T05:13:43.117Z,1016.07
2023-05-01T05:14:43.184Z,1016.13
2023-05-01T05:15:43.049Z,1016.14
2023-05-01T05:16:43.093Z,1016.11
2023-05-01T05:17:43.005Z,1016.10
2023-05-01T05:18:43.008Z,1016.05
2023-05-01T05:19:42.977Z,1016.04
2023-05-01T05:20:42.870Z,1016.07
2023-05-01T05:21:42.837Z,1016.07
2023-05-01T05:22:42.806Z,1016.08
2023-05-01T05:23:42.778Z,1016.09
2023-05-01T05:24:42.784Z,1016.08
2023-05-01T05:25:42.699Z,1016.06
2023-05-01T05:26:42.686Z,1016.05
2023-05-01T05:27:42.624Z,1016.06
2023-05-01T05:28:42.594Z,1016.04
2023-05-01T05:29:42.561Z,1016.00
2023-05-01T05:30:42.585Z,1015.98
2023-05-01T05:31:42.538Z,1015.95
2023-05-01T05:32:42.474Z,1015.97
2023-05-01T05:33:42.425Z,1015.98
2023-05-01T05:34:42.393Z,1015.94
2023-05-01T05:35:42.446Z,1015.92
2023-05-01T05:36:42.366Z,1015.90
2023-05-01T05:37:43.412Z,1015.93
2023-05-01T05:38:42.268Z,1015.91
2023-05-01T05:39:42.251Z,1015.91
2023-05-01T05:40:42.186Z,1015.94
2023-05-01T05:41:42.151Z,1015.90
2023-05-01T05:42:42.171Z,1015.95
2023-05-01T05:43:42.092Z,1015.92
2023-05-01T05:44:42.054Z,1015.89
2023-05-01T05:45:42.112Z,1015.90
2023-05-01T05:46:42.029Z,1015.87
2023-05-01T05:47:42.033Z,1015.87
2023-05-01T05:48:41.903Z,1015.87
2023-05-01T05:49:41.923Z,1015.89
2023-05-01T05:50:41.909Z,1015.84
2023-05-01T05:51:41.803Z,1015.86
2023-05-01T05:52:41.765Z,1015.92
2023-05-01T05:53:41.736Z,1015.88
2023-05-01T05:54:41.706Z,1015.87
2023-05-01T05:55:41.723Z,1015.86
2023-05-01T05:56:41.630Z,1015.84
2023-05-01T05:57:41.605Z,1015.88
2023-05-01T05:58:41.609Z,1015.87
2023-05-01T05:59:41.541Z,1015.92
2023-05-01T06:00:41.612Z,1015.94
2023-05-01T06:01:41.453Z,1015.90
2023-05-01T06:02:41.469Z,1015.90
2023-05-01T06:03:41.598Z,1015.88
2023-05-01T06:04:41.370Z,1015.87
2023-05-01T06:05:41.413Z,1015.89
2023-05-01T06:06:41.363Z,1015.87
2023-05-01T06:07:41.251Z,1015.89
2023-05-01T06:08:41.205Z,1015.82
2023-05-01T06:09:41.182Z,1015.85
2023-05-01T06:10:41.149Z,1015.84
2023-05-01T06:11:41.307Z,1015.86
2023-05-01T06:12:44.688Z,1015.88
2023-05-01T06:13:41.047Z,1015.86
2023-05-01T06:14:41.018Z,1015.84
2023-05-01T06:15:41.064Z,1015.81
2023-05-01T06:16:40.946Z,1015.81
2023-05-01T06:17:40.968Z,1015.81
2023-05-01T06:18:40.877Z,1015.81
2023-05-01T06:19:40.835Z,1015.85
2023-05-01T06:20:40.805Z,1015.83
2023-05-01T06:21:40.773Z,1015.81
2023-05-01T06:22:40.736Z,1015.80
2023-05-01T06:23:40.759Z,1015.81
2023-05-01T06:24:40.713Z,1015.80
2023-05-01T06:25:40.631Z,1015.74
2023-05-01T06:26:40.611Z,1015.76
2023-05-01T06:27:40.576Z,1015.76
2023-05-01T06:28:40.538Z,1015.73
2023-05-01T06:29:40.573Z,1015.75
2023-05-01T06:30:40.475Z,1015.73
2023-05-01T06:31:40.461Z,1015.76
2023-05-01T06:32:40.416Z,1015.72
2023-05-01T06:33:40.361Z,1015.80
2023-05-01T06:34:40.336Z,1015.81
2023-05-01T06:35:40.353Z,1015.79
2023-05-01T06:36:40.266Z,1015.74
2023-05-01T06:37:40.225Z,1015.81
2023-05-01T06:38:40.189Z,1015.78
2023-05-01T06:39:40.201Z,1015.80
2023-05-01T06:40:40.185Z,1015.80
2023-05-01T06:41:40.210Z,1015.82
2023-05-01T06:42:40.181Z,1015.82
2023-05-01T06:43:40.045Z,1015.78
2023-05-01T06:44:40.000Z,1015.77
2023-05-01T06:45:39.967Z,1015.76
2023-05-01T06:46:40.061Z,1015.79
2023-05-01T06:47:39.949Z,1015.76
2023-05-01T06:48:39.862Z,1015.81
2023-05-01T06:49:39.835Z,1015.75
2023-05-01T06:50:39.793Z,1015.76
2023-05-01T06:51:39.760Z,1015.75
2023-05-01T06:52:39.834Z,1015.76
2023-05-01T06:53:39.701Z,1015.75
2023-05-01T06:54:39.668Z,1015.72
2023-05-01T06:55:39.625Z,1015.69
2023-05-01T06:56:39.589Z,1015.68
2023-05-01T06:57:39.621Z,1015.66
2023-05-01T06:58:39.601Z,1015.67
2023-05-01T06:59:39.493Z,1015.71
2023-05-01T07:00:39.518Z,1015.75
2023-05-01T07:01:39.487Z,1015.76
2023-05-01T07:02:39.484Z,1015.74
2023-05-01T07:03:39.443Z,1015.70
2023-05-01T07:04:39.397Z,1015.66
2023-05-01T07:05:39.295Z,1015.72
2023-05-01T07:06:39.336Z,1015.65
2023-05-01T07:07:47.322Z,1015.64
2023-05-01T07:08:39.211Z,1015.67
2023-05-01T07:09:39.214Z,1015.59
2023-05-01T07:10:41.741Z,1015.60
2023-05-01T07:11:39.113Z,1015.58
2023-05-01T07:12:39.077Z,1015.58
2023-05-01T07:13:39.045Z,1015.59
2023-05-01T07:14:39.026Z,1015.60
2023-05-01T07:15:38.977Z,1015.56
2023-05-01T07:16:39.029Z,1015.57
2023-05-01T07:17:38.937Z,1015.58
2023-05-01T07:18:38.893Z,1015.53
2023-05-01T07:19:38.854Z,1015.56
2023-05-01T07:20:39.165Z,1015.57
2023-05-01T07:21:38.799Z,1015.56
2023-05-01T07:22:38.777Z,1015.54
2023-05-01T07:23:38.730Z,1015.55
2023-05-01T07:24:38.702Z,1015.53
2023-05-01T07:25:38.697Z,1015.50
2023-05-01T07:26:38.698Z,1015.56
2023-05-01T07:27:38.602Z,1015.54
2023-05-01T07:28:38.657Z,1015.51
2023-05-01T07:29:38.543Z,1015.51
2023-05-01T07:30:38.515Z,1015.48
2023-05-01T07:31:38.598Z,1015.44
2023-05-01T07:32:38.465Z,1015.47
2023-05-01T07:33:38.412Z,1015.48
2023-05-01T07:34:38.380Z,1015.49
2023-05-01T07:35:38.345Z,1015.47
2023-05-01T07:36:38.394Z,1015.50
2023-05-01T07:37:38.286Z,1015.44
2023-05-01T07:38:38.259Z,1015.45
2023-05-01T07:39:38.228Z,1015.43
2023-05-01T07:40:38.193Z,1015.45
2023-05-01T07:41:38.169Z,1015.43
2023-05-01T07:42:38.189Z,1015.40
2023-05-01T07:43:38.099Z,1015.39
2023-05-01T07:44:38.073Z,1015.38
2023-05-01T07:45:38.070Z,1015.37
2023-05-01T07:46:38.108Z,1015.35
2023-05-01T07:47:38.079Z,1015.35
2023-05-01T07:48:38.954Z,1015.31
2023-05-01T07:49:37.927Z,1015.33
2023-05-01T07:50:37.884Z,1015.30
2023-05-01T07:51:37.861Z,1015.28
2023-05-01T07:52:37.835Z,1015.28
2023-05-01T07:53:37.845Z,1015.29
2023-05-01T07:54:37.765Z,1015.26
2023-05-01T07:55:37.740Z,1015.20
2023-05-01T07:56:37.706Z,1015.18
2023-05-01T07:57:37.685Z,1015.20
2023-05-01T07:58:37.753Z,1015.19
2023-05-01T07:59:37.636Z,1015.20
2023-05-01T08:00:37.584Z,1015.16
2023-05-01T08:01:37.563Z,1015.13
2023-05-01T08:02:37.597Z,1015.17
2023-05-01T08:03:37.820Z,1015.19
2023-05-01T08:04:37.514Z,1015.17
2023-05-01T08:05:37.433Z,1015.13
2023-05-01T08:06:37.463Z,1015.12
2023-05-01T08:07:37.395Z,1015.14
2023-05-01T08:08:37.460Z,1015.09
2023-05-01T08:09:37.549Z,1015.05
2023-05-01T08:10:37.289Z,1015.08
2023-05-01T08:11:37.265Z,1015.03
2023-05-01T08:12:37.236Z,1015.02
2023-05-01T08:13:37.277Z,1015.04
2023-05-01T08:14:37.239Z,1015.02
2023-05-01T08:15:37.180Z,1015.01
2023-05-01T08:16:37.168Z,1015.01
2023-05-01T08:17:37.146Z,1015.00
2023-05-01T08:18:37.065Z,1014.98
2023-05-01T08:19:37.091Z,1014.98
2023-05-01T08:20:37.027Z,1014.96
2023-05-01T08:21:36.966Z,1014.94
2023-05-01T08:22:36.935Z,1014.93
2023-05-01T08:23:36.923Z,1014.92
2023-05-01T08:24:36.972Z,1014.99
2023-05-01T08:25:36.849Z,1014.95
2023-05-01T08:26:36.847Z,1014.95
2023-05-01T08:27:36.808Z,1014.95
2023-05-01T08:28:36.766Z,1015.00
2023-05-01T08:29:36.736Z,1014.97
2023-05-01T08:30:36.787Z,1014.96
2023-05-01T08:31:36.719Z,1014.92
2023-05-01T08:32:36.667Z,1014.93
2023-05-01T08:33:36.620Z,1014.95
2023-05-01T08:34:36.591Z,1014.95
2023-05-01T08:35:36.560Z,1014.95
2023-05-01T08:36:36.754Z,1014.96
2023-05-01T08:37:36.504Z,1014.96
2023-05-01T08:38:36.478Z,1014.93
2023-05-01T08:39:36.531Z,1014.89
2023-05-01T08:40:36.422Z,1014.88
2023-05-01T08:41:36.380Z,1014.88
2023-05-01T08:42:36.442Z,1014.85
2023-05-01T08:43:36.332Z,1014.86
2023-05-01T08:44:36.330Z,1014.81
2023-05-01T08:45:36.304Z,1014.81
2023-05-01T08:46:36.257Z,1014.79
2023-05-01T08:47:36.239Z,1014.78
2023-05-01T08:48:36.236Z,1014.77
2023-05-01T08:49:36.138Z,1014.77
2023-05-01T08:50:36.115Z,1014.76
2023-05-01T08:51:36.094Z,1014.70
2023-05-01T08:52:36.065Z,1014.66
2023-05-01T08:53:36.023Z,1014.74
2023-05-01T08:54:36.080Z,1014.68
2023-05-01T08:55:35.982Z,1014.70
2023-05-01T08:56:35.937Z,1014.65
2023-05-01T08:57:35.919Z,1014.66
2023-05-01T08:58:35.885Z,1014.69
2023-05-01T08:59:35.864Z,1014.60
2023-05-01T09:00:35.895Z,1014.61
2023-05-01T09:01:35.822Z,1014.57
2023-05-01T09:02:35.778Z,1014.59
2023-05-01T09:03:35.750Z,1014.50
2023-05-01T09:04:35.699Z,1014.51
2023-05-01T09:05:35.680Z,1014.49
2023-05-01T09:06:35.747Z,1014.50
2023-05-01T09:07:35.606Z,1014.44
2023-05-01T09:08:35.588Z,1014.39
2023-05-01T09:09:35.552Z,1014.46
2023-05-01T09:10:35.557Z,1014.38
2023-05-01T09:11:35.534Z,1014.42
2023-05-01T09:12:35.594Z,1014.38
2023-05-01T09:13:35.433Z,1014.40
2023-05-01T09:14:35.407Z,1014.37
2023-05-01T09:15:35.378Z,1014.35
2023-05-01T09:16:35.429Z,1014.35
2023-05-01T09:17:35.399Z,1014.33
2023-05-01T09:18:35.302Z,1014.30
2023-05-01T09:19:35.262Z,1014.34
2023-05-01T09:20:35.238Z,1014.26
2023-05-01T09:21:35.341Z,1014.28
2023-05-01T09:22:35.176Z,1014.22
2023-05-01T09:23:35.190Z,1014.28
2023-05-01T09:24:35.244Z,1014.23
2023-05-01T09:25:35.181Z,1014.26
2023-05-01T09:26:35.079Z,1014.23
2023-05-01T09:27:35.040Z,1014.23
2023-05-01T09:28:35.002Z,1014.24
2023-05-01T09:29:35.028Z,1014.19
2023-05-01T09:30:34.961Z,1014.19
2023-05-01T09:31:35.009Z,1014.16
2023-05-01T09:32:34.948Z,1014.16
2023-05-01T09:33:34.864Z,1014.15
2023-05-01T09:34:34.835Z,1014.11
2023-05-01T09:35:34.879Z,1014.12
2023-05-01T09:36:34.785Z,1014.12
2023-05-01T09:37:34.751Z,1014.12
2023-05-01T09:38:34.716Z,1014.11
2023-05-01T09:39:34.699Z,1014.15
2023-05-01T09:40:34.665Z,1014.06
2023-05-01T09:41:34.697Z,1014.05
2023-05-01T09:42:34.608Z,1014.01
2023-05-01T09:43:34.573Z,1014.02
2023-05-01T09:44:34.543Z,1013.89
2023-05-01T09:45:34.528Z,1013.95
2023-05-01T09:46:34.651Z,1013.90
2023-05-01T09:47:34.571Z,1013.91
2023-05-01T09:48:35.637Z,1013.86
2023-05-01T09:49:34.676Z,1013.90
2023-05-01T09:50:34.581Z,1013.87
2023-05-01T09:51:34.345Z,1013.86
2023-05-01T09:52:34.408Z,1013.83
2023-05-01T09:53:34.280Z,1013.79
2023-05-01T09:54:35.286Z,1013.80
2023-05-01T09:55:34.288Z,1013.80
2023-05-01T09:56:34.411Z,1013.75
2023-05-01T09:57:34.170Z,1013.78
2023-05-01T09:58:34.193Z,1013.74
2023-05-01T09:59:34.120Z,1013.78
2023-05-01T10:00:34.163Z,1013.77
2023-05-01T10:01:34.102Z,1013.77
2023-05-01T10:02:34.139Z,1013.74
2023-05-01T10:03:34.070Z,1013.73
2023-05-01T10:04:34.018Z,1013.70
2023-05-01T10:05:33.944Z,1013.72
2023-05-01T10:06:34.030Z,1013.67
2023-05-01T10:07:33.970Z,1013.70
2023-05-01T10:08:33.862Z,1013.66
2023-05-01T10:09:33.842Z,1013.66
2023-05-01T10:10:33.878Z,1013.67
2023-05-01T10:11:33.761Z,1013.60
2023-05-01T10:12:33.807Z,1013.57
2023-05-01T10:13:33.757Z,1013.54
2023-05-01T10:14:33.739Z,1013.56
2023-05-01T10:15:33.660Z,1013.61
2023-05-01T10:16:33.640Z,1013.58
2023-05-01T10:17:33.688Z,1013.53
2023-05-01T10:18:33.566Z,1013.56
2023-05-01T10:19:33.549Z,1013.54
2023-05-01T10:20:33.555Z,1013.53
2023-05-01T10:21:33.473Z,1013.45
2023-05-01T10:22:33.527Z,1013.46
2023-05-01T10:23:33.424Z,1013.46
2023-05-01T10:24:33.401Z,1013.48
2023-05-01T10:25:33.358Z,1013.50
2023-05-01T10:26:33.339Z,1013.47
2023-05-01T10:27:33.321Z,1013.45
2023-05-01T10:28:33.384Z,1013.47
2023-05-01T10:29:33.254Z,1013.45
2023-05-01T10:30:33.253Z,1013.49
2023-05-01T10:31:33.584Z,1013.46
2023-05-01T10:32:33.208Z,1013.42
2023-05-01T10:33:33.140Z,1013.45
2023-05-01T10:34:33.202Z,1013.40
2023-05-01T10:35:33.076Z,1013.38
2023-05-01T10:36:33.157Z,1013.36
2023-05-01T10:37:33.030Z,1013.31
2023-05-01T10:38:33.159Z,1013.36
2023-05-01T10:39:32.966Z,1013.31
2023-05-01T10:40:33.026Z,1013.26
2023-05-01T10:41:33.019Z,1013.29
2023-05-01T10:42:32.890Z,1013.26
2023-05-01T10:43:32.866Z,1013.28
2023-05-01T10:44:32.854Z,1013.26
2023-05-01T10:45:33.938Z,1013.24
2023-05-01T10:46:32.932Z,1013.21
2023-05-01T10:47:32.759Z,1013.24
2023-05-01T10:48:32.713Z,1013.24
2023-05-01T10:49:32.681Z,1013.24
2023-05-01T10:50:32.649Z,1013.20
2023-05-01T10:51:32.636Z,1013.21
2023-05-01T10:52:32.655Z,1013.18
2023-05-01T10:53:32.571Z,1013.16
2023-05-01T10:54:32.532Z,1013.12
2023-05-01T10:55:32.518Z,1013.13
2023-05-01T10:56:32.523Z,1013.15
2023-05-01T10:57:32.475Z,1013.12
2023-05-01T10:58:32.498Z,1013.15
2023-05-01T10:59:32.394Z,1013.14
2023-05-01T11:00:32.389Z,1013.16
2023-05-01T11:01:32.362Z,1013.15
2023-05-01T11:02:32.360Z,1013.13
2023-05-01T11:03:32.293Z,1013.12
2023-05-01T11:04:32.326Z,1013.08
2023-05-01T11:05:38.511Z,1013.03
2023-05-01T11:06:32.363Z,1013.01
2023-05-01T11:07:32.197Z,1013.00
2023-05-01T11:08:32.248Z,1012.97
2023-05-01T11:09:32.126Z,1012.97
2023-05-01T11:10:32.160Z,1012.96
2023-05-01T11:11:32.163Z,1013.02
2023-05-01T11:12:32.054Z,1012.98
2023-05-01T11:13:32.001Z,1012.95
2023-05-01T11:14:31.981Z,1012.94
2023-05-01T11:15:31.975Z,1012.93
2023-05-01T11:16:32.054Z,1012.93
2023-05-01T11:17:31.939Z,1012.90
2023-05-01T11:18:31.880Z,1012.85
2023-05-01T11:19:31.865Z,1012.84
2023-05-01T11:20:31.885Z,1012.83
2023-05-01T11:21:31.801Z,1012.85
2023-05-01T11:22:31.846Z,1012.82
2023-05-01T11:23:31.765Z,1012.79
2023-05-01T11:24:31.720Z,1012.74
2023-05-01T11:25:31.715Z,1012.72
2023-05-01T11:26:32.579Z,1012.70
2023-05-01T11:27:31.714Z,1012.72
2023-05-01T11:28:31.608Z,1012.68
2023-05-01T11:29:31.611Z,1012.70
2023-05-01T11:30:31.589Z,1012.66
2023-05-01T11:31:31.587Z,1012.64
2023-05-01T11:32:31.566Z,1012.67
2023-05-01T11:33:32.019Z,1012.62
2023-05-01T11:34:31.469Z,1012.63
2023-05-01T11:35:31.436Z,1012.58
2023-05-01T11:36:31.417Z,1012.56
2023-05-01T11:37:31.379Z,1012.57
2023-05-01T11:38:31.368Z,1012.56
2023-05-01T11:39:31.452Z,1012.47
2023-05-01T11:40:31.345Z,1012.49
2023-05-01T11:41:31.329Z,1012.44
2023-05-01T11:42:31.294Z,1012.39
2023-05-01T11:43:31.231Z,1012.44
2023-05-01T11:44:31.210Z,1012.36
2023-05-01T11:45:31.291Z,1012.38
2023-05-01T11:46:31.327Z,1012.38
2023-05-01T11:47:31.860Z,1012.34
2023-05-01T11:48:31.425Z,1012.41
2023-05-01T11:49:31.099Z,1012.37
2023-05-01T11:50:31.041Z,1012.30
2023-05-01T11:51:31.028Z,1012.24
2023-05-01T11:52:31.017Z,1012.25
2023-05-01T11:53:30.961Z,1012.27
2023-05-01T11:54:31.049Z,1012.26
2023-05-01T11:55:30.916Z,1012.21
2023-05-01T11:56:30.910Z,1012.18
2023-05-01T11:57:30.862Z,1012.20
2023-05-01T11:58:30.832Z,1012.14
2023-05-01T11:59:30.872Z,1012.18
2023-05-01T12:00:31.330Z,1012.18
2023-05-01T12:01:30.785Z,1012.17
2023-05-01T12:02:31.414Z,1012.11
2023-05-01T12:03:30.796Z,1012.11
2023-05-01T12:04:32.368Z,1012.08
2023-05-01T12:05:30.787Z,1012.11